CheckWX is a tool to help pilots better visualize weather data.  It is not intended as a substitute for an official pre-flight weather briefing.

16:54:22 UTC

VTSG TAF
Krabi Airport
Krabi, Thailand
TAF VTSG 181100Z 1812/1912 24004KT 9999 FEW020 SCT100 TEMPO 1820/1902 24015G25KT 5000 TSRA FEW018CB SCT020 BKN100

Jun-18@
12:00 UTC

Jun-18 @ 12:00 UTC

Jun-19@
12:00 UTC

Jun-19 @ 12:00 UTC

TAF VTSG 181100Z 1812/1912 24004KT 9999 FEW020 SCT100
Wind
  • 240° at 4 KTS
Cloud Levels
  • Few at 2,000' AGL
  • Scattered at 10,000' AGL

Jun-18@
20:00 UTC

Jun-18 @ 20:00 UTC

Jun-19@
02:00 UTC

Jun-19 @ 02:00 UTC

TEMPO 1820/1902 24015G25KT 5000 TSRA FEW018CB SCT020 BKN100

Temporary

Temporary Changes expected for less than half the time period

Wind
  • 240° at 15 KTS
  • {Gusting to 25 KTS
Conditions
Thunderstorm, Rain
Cloud Levels
  • Few at 1,800' AGL
  • Scattered at 2,000' AGL
  • Broken at 10,000' AGL